Historique des mesures à Cassis (13260), France
Quotidien Résumé Aout 8, 2017 Unités:  Métrique    US   Métrique/US
« Précédent (Jour)
Suivant (Jour) »
Quotidien Hebdomadaire Mensuel Annuel Période au choix
  Maximum: Minimum: Moyenne:
Température: TemperatureC °C 23.9 °C 26 °C
Point de rosée: DewpointC °C 11.9 °C 15.7 °C
Humidité: Humidity % 42 % 50 %
Vitesse du vent: 0 km/h 0 km/h 7.4 km/h
Rafales: 0 km/h - -
Vent:- - SSW
Pression: PressurehPa hPa 1007.3 hPa -
Précipitations: 0.0 mm    
Historical Graphs
 
 
Mesures pour : Aout 8, 2017
Heure Temperature Point de rosée Pression Vent Vitesse du vent Rafales Humidité Pluie (par heure) Conditions
TemperatureC °C DewpointC °C PressurehPa hPa Calm     Humidity % HourlyPrecipMM mm SoftwareType W/m2
00:11 25.9 °C 12.0 °C 1009.7 hPa Calm     42 % 0.0 mm open2300-1.11 W/m2
01:11 25.5 °C 11.9 °C 1009.4 hPa Calm     43 % 0.0 mm open2300-1.11 W/m2
02:11 25.6 °C 12.4 °C 1009.0 hPa Calm   2.3 km/h 44 % 0.0 mm open2300-1.11 W/m2
03:11 25.1 °C 12.3 °C 1008.7 hPa Calm     45 % 0.0 mm open2300-1.11 W/m2
06:11 24.8 °C 14.6 °C 1007.7 hPa Calm     53 % 0.0 mm open2300-1.11 W/m2
07:11 24.2 °C 14.6 °C 1008.0 hPa North 1.8 km/h 1.8 km/h 55 % 0.0 mm open2300-1.11 W/m2
08:11 25.2 °C 16.3 °C 1008.4 hPa Calm   6.9 km/h 58 % 0.0 mm open2300-1.11 W/m2
09:11 26.5 °C 17.0 °C 1007.3 hPa SE 12.7 km/h 12.7 km/h 56 % 0.0 mm open2300-1.11 W/m2
10:11 27.7 °C 16.9 °C 1008.4 hPa SSW 5.1 km/h 8 km/h 52 % 0.0 mm open2300-1.11 W/m2
11:11 29.8 °C 20.9 °C 1008.7 hPa South 9.8 km/h 9.8 km/h 59 % 0.0 mm open2300-1.11 W/m2
12:11 30.2 °C 19.6 °C 1008.7 hPa Calm   4.2 km/h 53 % 0.0 mm open2300-1.11 W/m2
13:11 30.8 °C 18.2 °C 1008.7 hPa West 2.3 km/h 9.3 km/h 47 % 0.0 mm open2300-1.11 W/m2
14:11 30.3 °C 18.4 °C 1008.4 hPa SE 5.6 km/h 7.6 km/h 49 % 0.0 mm open2300-1.11 W/m2
15:11 30.8 °C 19.2 °C 1008.0 hPa ESE 1.8 km/h 9.3 km/h 50 % 0.0 mm open2300-1.11 W/m2
16:11 30.6 °C 18.3 °C 1008.0 hPa SSE 3.4 km/h 9.3 km/h 48 % 0.0 mm open2300-1.11 W/m2
17:11 30.4 °C 18.2 °C 1008.0 hPa Calm   3.4 km/h 48 % 0.0 mm open2300-1.11 W/m2
18:11 27.8 °C 18.2 °C 1007.7 hPa NW 33.6 km/h 33.6 km/h 56 % 0.0 mm open2300-1.11 W/m2
19:11 26.1 °C 18.0 °C 1007.3 hPa NW 12.7 km/h 15 km/h 61 % 0.0 mm open2300-1.11 W/m2
20:11 25.9 °C 16.7 °C 1007.7 hPa WNW 9.3 km/h 17.4 km/h 57 % 0.0 mm open2300-1.11 W/m2
21:11 25.9 °C 15.8 °C 1008.0 hPa NNW 9.8 km/h 30.7 km/h 54 % 0.0 mm open2300-1.11 W/m2
22:11 24.6 °C 16.8 °C 1008.7 hPa NNE 29 km/h 30.7 km/h 62 % 0.0 mm open2300-1.11 W/m2
23:11 23.9 °C 15.9 °C 1009.4 hPa NNW 31.9 km/h 54.9 km/h 61 % 0.0 mm open2300-1.11 W/m2
Observations météo à CASSIS
WU-History script by Weather Underground - 1 mb